createdAt,value
2023-04-14T00:00:10.589Z,20.03
2023-04-14T00:02:58.853Z,20.77
2023-04-14T00:05:34.345Z,20.63
2023-04-14T00:08:03.498Z,20.40
2023-04-14T00:10:32.050Z,20.10
2023-04-14T00:13:02.211Z,20.30
2023-04-14T00:15:33.898Z,20.90
2023-04-14T00:18:04.872Z,19.93
2023-04-14T00:20:33.341Z,20.83
2023-04-14T00:23:02.165Z,20.00
2023-04-14T00:25:31.103Z,19.43
2023-04-14T00:27:59.573Z,19.00
2023-04-14T00:30:32.018Z,19.70
2023-04-14T00:33:02.372Z,20.73
2023-04-14T00:35:31.850Z,21.00
2023-04-14T00:38:00.031Z,20.90
2023-04-14T00:40:29.831Z,22.43
2023-04-14T00:42:58.824Z,24.57
2023-04-14T00:45:27.754Z,23.70
2023-04-14T00:47:55.997Z,26.17
2023-04-14T00:50:27.677Z,34.13
2023-04-14T00:52:57.353Z,29.33
2023-04-14T00:55:25.927Z,30.70
2023-04-14T00:57:55.137Z,29.37
2023-04-14T01:00:24.469Z,29.93
2023-04-14T01:02:54.107Z,24.33
2023-04-14T01:05:23.482Z,27.87
2023-04-14T01:07:52.026Z,29.53
2023-04-14T01:10:20.245Z,28.20
2023-04-14T01:13:33.808Z,28.00
2023-04-14T01:16:05.915Z,26.03
2023-04-14T01:18:52.899Z,26.93
2023-04-14T01:21:36.329Z,25.17
2023-04-14T01:24:10.531Z,24.80
2023-04-14T01:26:39.842Z,22.77
2023-04-14T01:29:45.165Z,24.20
2023-04-14T01:32:16.231Z,24.77
2023-04-14T01:35:05.979Z,25.60
2023-04-14T01:37:37.651Z,30.03
2023-04-14T01:40:11.872Z,28.03
2023-04-14T01:42:47.919Z,27.93
2023-04-14T01:45:25.868Z,28.00
2023-04-14T01:47:54.807Z,28.67
2023-04-14T01:50:23.154Z,28.77
2023-04-14T01:52:54.663Z,27.60
2023-04-14T01:55:24.321Z,29.03
2023-04-14T01:57:58.316Z,30.03
2023-04-14T02:00:27.513Z,32.80
2023-04-14T02:02:56.455Z,30.70
2023-04-14T02:05:25.452Z,31.70
2023-04-14T02:07:55.447Z,29.67
2023-04-14T02:10:24.300Z,28.30
2023-04-14T02:12:58.078Z,29.97
2023-04-14T02:15:44.211Z,28.20
2023-04-14T02:18:12.551Z,26.63
2023-04-14T02:20:45.350Z,23.50
2023-04-14T02:23:31.295Z,23.80
2023-04-14T02:26:16.554Z,22.27
2023-04-14T02:29:06.686Z,22.40
2023-04-14T02:31:37.307Z,24.63
2023-04-14T02:34:06.404Z,24.30
2023-04-14T02:36:47.142Z,28.00
2023-04-14T02:39:21.845Z,25.87
2023-04-14T02:42:03.659Z,27.07
2023-04-14T02:44:38.822Z,27.33
2023-04-14T02:47:09.493Z,24.20
2023-04-14T02:49:42.718Z,25.60
2023-04-14T02:52:16.397Z,21.10
2023-04-14T02:54:50.352Z,22.13
2023-04-14T02:57:18.702Z,20.60
2023-04-14T02:59:47.790Z,18.27
2023-04-14T03:02:19.484Z,17.10
2023-04-14T03:04:49.816Z,14.33
2023-04-14T03:07:18.452Z,13.30
2023-04-14T03:09:49.669Z,13.17
2023-04-14T03:12:21.705Z,12.70
2023-04-14T03:14:50.281Z,12.73
2023-04-14T03:17:21.510Z,12.80
2023-04-14T03:19:50.315Z,13.60
2023-04-14T03:22:20.905Z,13.33
2023-04-14T03:24:51.181Z,13.33
2023-04-14T03:27:23.105Z,14.30
2023-04-14T03:29:55.856Z,13.30
2023-04-14T03:32:26.495Z,14.20
2023-04-14T03:34:57.543Z,15.43
2023-04-14T03:37:29.309Z,16.03
2023-04-14T03:40:01.515Z,18.87
2023-04-14T03:42:30.861Z,21.17
2023-04-14T03:45:02.911Z,22.67
2023-04-14T03:47:32.004Z,21.23
2023-04-14T03:50:05.389Z,21.03
2023-04-14T03:52:35.804Z,21.50
2023-04-14T03:55:07.076Z,20.80
2023-04-14T03:57:37.299Z,19.97
2023-04-14T04:00:09.081Z,19.03
2023-04-14T04:02:58.163Z,16.43
2023-04-14T04:05:26.801Z,17.57
2023-04-14T04:07:56.963Z,16.07
2023-04-14T04:10:25.461Z,15.50
2023-04-14T04:12:54.385Z,12.03
2023-04-14T04:15:22.660Z,13.17
2023-04-14T04:17:53.714Z,13.13
2023-04-14T04:20:22.974Z,12.87
2023-04-14T04:22:55.763Z,12.17
2023-04-14T04:25:24.425Z,13.30
2023-04-14T04:27:55.526Z,12.90
2023-04-14T04:30:24.662Z,13.40
2023-04-14T04:32:56.462Z,12.07
2023-04-14T04:35:29.967Z,11.37
2023-04-14T04:38:01.221Z,11.67
2023-04-14T04:40:38.966Z,11.93
2023-04-14T04:43:09.777Z,11.97
2023-04-14T04:46:09.589Z,10.80
2023-04-14T04:48:37.760Z,10.47
2023-04-14T04:51:06.502Z,11.30
2023-04-14T04:53:34.542Z,11.80
2023-04-14T04:56:03.227Z,11.30
2023-04-14T04:58:33.196Z,10.43
2023-04-14T05:01:08.600Z,9.87
2023-04-14T05:03:38.333Z,10.73
2023-04-14T05:06:07.077Z,10.00
2023-04-14T05:09:02.196Z,9.10
2023-04-14T05:11:30.605Z,8.60
2023-04-14T05:13:59.343Z,8.87
2023-04-14T05:16:32.237Z,9.40
2023-04-14T05:19:00.967Z,8.67
2023-04-14T05:21:30.163Z,9.67
2023-04-14T05:23:59.255Z,8.70
2023-04-14T05:26:54.779Z,7.30
2023-04-14T05:29:24.178Z,7.23
2023-04-14T05:31:52.426Z,6.73
2023-04-14T05:34:20.876Z,7.17
2023-04-14T05:36:48.956Z,6.23
2023-04-14T05:39:17.375Z,6.73
2023-04-14T05:41:46.452Z,6.77
2023-04-14T05:44:14.753Z,7.00
2023-04-14T05:46:43.081Z,6.90
2023-04-14T05:49:13.037Z,7.03
2023-04-14T05:51:43.870Z,8.83
2023-04-14T05:54:14.836Z,7.70
2023-04-14T05:56:42.926Z,7.87
2023-04-14T05:59:16.663Z,7.93
2023-04-14T06:01:52.237Z,7.70
2023-04-14T06:04:22.264Z,7.60
2023-04-14T06:06:53.076Z,8.00
2023-04-14T06:09:23.673Z,7.00
2023-04-14T06:12:09.456Z,8.27
2023-04-14T06:14:38.325Z,7.27
2023-04-14T06:17:07.961Z,8.40
2023-04-14T06:19:37.444Z,7.93
2023-04-14T06:22:06.515Z,8.00
2023-04-14T06:24:35.647Z,8.10
2023-04-14T06:27:04.559Z,8.50
2023-04-14T06:29:33.940Z,8.03
2023-04-14T06:32:01.962Z,8.77
2023-04-14T06:34:33.249Z,8.20
2023-04-14T06:37:04.343Z,8.00
2023-04-14T06:39:32.323Z,8.70
2023-04-14T06:42:03.135Z,8.40
2023-04-14T06:44:33.045Z,8.07
2023-04-14T06:47:04.528Z,8.30
2023-04-14T06:49:34.240Z,8.30
2023-04-14T06:52:05.521Z,8.90
2023-04-14T06:54:35.172Z,8.77
2023-04-14T06:57:03.000Z,8.70
2023-04-14T06:59:32.796Z,8.90
2023-04-14T07:02:01.115Z,8.83
2023-04-14T07:04:29.622Z,8.67
2023-04-14T07:07:02.213Z,8.80
2023-04-14T07:09:30.640Z,9.13
2023-04-14T07:11:59.016Z,9.10
2023-04-14T07:14:27.261Z,9.13
2023-04-14T07:16:58.242Z,9.43
2023-04-14T07:19:26.835Z,9.03
2023-04-14T07:21:55.283Z,9.97
2023-04-14T07:24:24.957Z,8.90
2023-04-14T07:26:53.198Z,8.00
2023-04-14T07:29:21.442Z,8.50
2023-04-14T07:31:49.631Z,8.43
2023-04-14T07:34:18.601Z,8.50
2023-04-14T07:36:48.581Z,9.03
2023-04-14T07:39:17.143Z,8.90
2023-04-14T07:41:46.081Z,9.30
2023-04-14T07:44:14.600Z,9.83
2023-04-14T07:46:45.204Z,12.50
2023-04-14T07:49:13.592Z,11.73
2023-04-14T07:51:41.938Z,11.80
2023-04-14T07:54:10.273Z,12.20
2023-04-14T07:56:38.685Z,11.83
2023-04-14T07:59:06.935Z,11.00
2023-04-14T08:01:35.100Z,11.23
2023-04-14T08:04:08.563Z,10.97
2023-04-14T08:06:37.470Z,11.67
2023-04-14T08:09:07.306Z,10.20
2023-04-14T08:11:39.000Z,10.07
2023-04-14T08:14:06.794Z,10.37
2023-04-14T08:16:37.131Z,8.43
2023-04-14T08:19:05.423Z,8.87
2023-04-14T08:21:33.502Z,7.07
2023-04-14T08:24:01.794Z,7.20
2023-04-14T08:26:30.238Z,6.60
2023-04-14T08:28:58.194Z,5.97
2023-04-14T08:31:27.273Z,7.07
2023-04-14T08:33:55.981Z,7.20
2023-04-14T08:36:24.472Z,7.03
2023-04-14T08:38:53.851Z,6.50
2023-04-14T08:41:22.609Z,6.40
2023-04-14T08:43:50.939Z,6.37
2023-04-14T08:46:27.594Z,6.87
2023-04-14T08:49:02.333Z,7.20
2023-04-14T08:51:32.602Z,7.30
2023-04-14T08:54:05.637Z,7.37
2023-04-14T08:56:43.824Z,7.53
2023-04-14T08:59:12.107Z,7.70
2023-04-14T09:01:41.885Z,7.30
2023-04-14T09:04:10.610Z,10.17
2023-04-14T09:06:38.827Z,7.10
2023-04-14T09:09:08.105Z,8.13
2023-04-14T09:11:37.995Z,7.23
2023-04-14T09:14:06.725Z,6.20
2023-04-14T09:16:36.755Z,7.33
2023-04-14T09:19:06.868Z,6.83
2023-04-14T09:21:53.968Z,7.17
2023-04-14T09:24:34.382Z,6.87
2023-04-14T09:27:05.674Z,6.77
2023-04-14T09:29:33.895Z,7.90
2023-04-14T09:32:03.136Z,9.10
2023-04-14T09:34:32.710Z,8.13
2023-04-14T09:37:02.966Z,8.07
2023-04-14T09:39:39.191Z,8.03
2023-04-14T09:42:08.327Z,7.70
2023-04-14T09:44:53.627Z,5.80
2023-04-14T09:47:27.263Z,4.90
2023-04-14T09:50:04.010Z,5.53
2023-04-14T09:52:49.291Z,4.23
2023-04-14T09:55:17.866Z,3.97
2023-04-14T09:57:48.349Z,3.57
2023-04-14T10:00:24.701Z,4.17
2023-04-14T10:03:15.877Z,4.07
2023-04-14T10:05:48.507Z,4.40
2023-04-14T10:08:17.330Z,4.73
2023-04-14T10:10:45.717Z,4.50
2023-04-14T10:13:22.117Z,4.33
2023-04-14T10:15:50.572Z,4.80
2023-04-14T10:18:18.837Z,5.20
2023-04-14T10:20:50.628Z,5.03
2023-04-14T10:23:19.093Z,6.17
2023-04-14T10:25:49.933Z,6.33
2023-04-14T10:28:18.406Z,6.00
2023-04-14T10:30:47.693Z,6.17
2023-04-14T10:33:16.097Z,5.73
2023-04-14T10:35:47.105Z,5.70
2023-04-14T10:38:17.655Z,5.90
2023-04-14T10:40:47.469Z,5.70
2023-04-14T10:43:16.367Z,5.37
2023-04-14T10:45:57.541Z,5.93
2023-04-14T10:48:35.275Z,6.07
2023-04-14T10:51:06.099Z,5.90
2023-04-14T10:53:55.835Z,5.80
2023-04-14T10:56:26.237Z,5.80
2023-04-14T10:58:58.462Z,6.10
2023-04-14T11:01:32.960Z,6.07
2023-04-14T11:04:19.361Z,6.00
2023-04-14T11:06:57.468Z,6.90
2023-04-14T11:09:39.577Z,6.50
2023-04-14T11:12:33.629Z,5.90
2023-04-14T11:15:06.527Z,6.33
2023-04-14T11:17:40.220Z,6.53
2023-04-14T11:20:24.069Z,6.57
2023-04-14T11:22:54.837Z,6.53
2023-04-14T11:25:25.187Z,5.93
2023-04-14T11:27:54.272Z,6.40
2023-04-14T11:30:24.280Z,6.30
2023-04-14T11:32:58.146Z,6.17
2023-04-14T11:35:30.350Z,6.10
2023-04-14T11:38:00.231Z,5.03
2023-04-14T11:40:29.037Z,5.73
2023-04-14T11:43:01.389Z,5.30
2023-04-14T11:45:30.465Z,5.30
2023-04-14T11:48:06.555Z,6.13
2023-04-14T11:50:39.341Z,6.13
2023-04-14T11:53:13.322Z,6.33
2023-04-14T11:55:46.252Z,6.20
2023-04-14T11:58:17.462Z,6.70
2023-04-14T12:00:53.057Z,7.57
2023-04-14T12:03:40.034Z,6.70
2023-04-14T12:06:08.843Z,7.07
2023-04-14T12:08:39.855Z,6.33
2023-04-14T12:11:15.395Z,5.50
2023-04-14T12:13:44.933Z,5.43
2023-04-14T12:16:13.784Z,5.70
2023-04-14T12:18:48.552Z,5.13
2023-04-14T12:21:24.745Z,6.23
2023-04-14T12:23:52.761Z,5.50
2023-04-14T12:26:26.359Z,5.60
2023-04-14T12:28:59.435Z,6.10
2023-04-14T12:31:31.465Z,5.50
2023-04-14T12:34:04.042Z,6.03
2023-04-14T12:37:48.312Z,5.17
2023-04-14T12:39:22.566Z,4.90
2023-04-14T12:41:58.815Z,4.27
2023-04-14T12:44:26.823Z,4.17
2023-04-14T12:46:56.618Z,3.60
2023-04-14T12:49:39.112Z,4.57
2023-04-14T12:52:08.953Z,4.53
2023-04-14T12:54:52.297Z,3.63
2023-04-14T12:57:21.579Z,4.60
2023-04-14T12:59:52.702Z,3.97
2023-04-14T13:02:21.092Z,4.10
2023-04-14T13:04:50.328Z,3.70
2023-04-14T13:07:20.586Z,3.93
2023-04-14T13:09:51.733Z,3.67
2023-04-14T13:12:20.631Z,4.30
2023-04-14T13:14:49.798Z,3.70
2023-04-14T13:17:18.524Z,4.07
2023-04-14T13:19:46.820Z,4.10
2023-04-14T13:22:16.384Z,3.67
2023-04-14T13:24:50.669Z,3.13
2023-04-14T13:27:19.863Z,2.80
2023-04-14T13:29:48.475Z,2.60
2023-04-14T13:32:19.526Z,2.53
2023-04-14T13:34:52.063Z,2.63
2023-04-14T13:37:22.080Z,2.00
2023-04-14T13:39:51.927Z,2.13
2023-04-14T13:42:20.656Z,2.20
2023-04-14T13:44:50.467Z,2.53
2023-04-14T13:47:21.197Z,2.30
2023-04-14T13:49:50.059Z,2.23
2023-04-14T13:52:18.101Z,2.60
2023-04-14T13:54:47.780Z,2.43
2023-04-14T13:57:16.348Z,2.97
2023-04-14T13:59:45.174Z,4.07
2023-04-14T14:02:13.786Z,2.70
2023-04-14T14:04:43.902Z,3.03
2023-04-14T14:07:12.445Z,2.77
2023-04-14T14:09:40.509Z,3.33
2023-04-14T14:12:12.360Z,4.17
2023-04-14T14:14:41.712Z,4.27
2023-04-14T14:17:13.030Z,2.80
2023-04-14T14:19:41.687Z,1.70
2023-04-14T14:22:11.143Z,1.60
2023-04-14T14:25:17.792Z,1.30
2023-04-14T14:27:48.454Z,1.40
2023-04-14T14:30:17.441Z,1.90
2023-04-14T14:32:46.189Z,1.70
2023-04-14T14:35:14.479Z,1.90
2023-04-14T14:37:44.774Z,1.87
2023-04-14T14:40:13.933Z,1.80
2023-04-14T14:42:43.170Z,1.93
2023-04-14T14:45:11.604Z,1.80
2023-04-14T14:47:43.428Z,1.77
2023-04-14T14:50:14.198Z,1.97
2023-04-14T14:52:42.675Z,2.00
2023-04-14T14:55:13.754Z,2.07
2023-04-14T14:57:42.506Z,2.10
2023-04-14T15:00:11.904Z,1.50
2023-04-14T15:03:00.827Z,1.53
2023-04-14T15:05:33.785Z,1.90
2023-04-14T15:08:04.846Z,1.67
2023-04-14T15:10:38.675Z,1.67
2023-04-14T15:13:07.813Z,1.50
2023-04-14T15:15:39.916Z,1.80
2023-04-14T15:18:08.840Z,1.77
2023-04-14T15:20:38.082Z,1.93
2023-04-14T15:23:07.509Z,1.80
2023-04-14T15:25:38.410Z,1.60
2023-04-14T15:28:08.335Z,1.70
2023-04-14T15:30:40.422Z,1.60
2023-04-14T15:33:13.197Z,1.87
2023-04-14T15:35:42.639Z,1.67
2023-04-14T15:38:10.905Z,1.87
2023-04-14T15:40:41.091Z,1.30
2023-04-14T15:43:11.792Z,1.23
2023-04-14T15:45:42.872Z,1.63
2023-04-14T15:48:14.341Z,1.40
2023-04-14T15:50:44.333Z,1.90
2023-04-14T15:53:14.356Z,1.40
2023-04-14T15:55:43.987Z,1.60
2023-04-14T15:58:12.550Z,1.53
2023-04-14T16:00:41.221Z,3.63
2023-04-14T16:03:12.283Z,1.80
2023-04-14T16:05:42.355Z,1.43
2023-04-14T16:08:11.712Z,1.77
2023-04-14T16:10:43.073Z,1.53
2023-04-14T16:13:15.370Z,2.23
2023-04-14T16:15:46.927Z,1.60
2023-04-14T16:18:14.959Z,1.80
2023-04-14T16:20:43.089Z,1.70
2023-04-14T16:23:11.410Z,1.70
2023-04-14T16:25:44.559Z,2.20
2023-04-14T16:28:16.752Z,2.10
2023-04-14T16:30:46.493Z,1.80
2023-04-14T16:33:23.687Z,1.83
2023-04-14T16:35:53.170Z,1.70
2023-04-14T16:38:23.948Z,1.90
2023-04-14T16:40:58.819Z,2.20
2023-04-14T16:43:30.494Z,2.20
2023-04-14T16:46:03.498Z,3.33
2023-04-14T16:48:32.925Z,1.63
2023-04-14T16:51:08.764Z,1.80
2023-04-14T16:53:39.194Z,2.03
2023-04-14T16:56:13.268Z,2.33
2023-04-14T16:58:45.950Z,1.73
2023-04-14T17:01:15.737Z,1.37
2023-04-14T17:03:44.630Z,1.23
2023-04-14T17:06:12.941Z,1.33
2023-04-14T17:08:42.361Z,1.47
2023-04-14T17:11:11.438Z,1.70
2023-04-14T17:13:42.940Z,1.67
2023-04-14T17:16:12.231Z,1.70
2023-04-14T17:18:41.834Z,1.73
2023-04-14T17:21:10.147Z,5.40
2023-04-14T17:23:41.185Z,1.87
2023-04-14T17:26:12.984Z,2.10
2023-04-14T17:28:41.932Z,2.10
2023-04-14T17:31:16.954Z,1.90
2023-04-14T17:33:50.787Z,1.90
2023-04-14T17:36:19.019Z,2.10
2023-04-14T17:38:48.622Z,2.30
2023-04-14T17:41:16.845Z,2.17
2023-04-14T17:43:49.060Z,2.23
2023-04-14T17:46:17.894Z,2.07
2023-04-14T17:48:46.690Z,1.90
2023-04-14T17:51:14.679Z,1.57
2023-04-14T17:53:43.762Z,1.50
2023-04-14T17:56:13.177Z,1.47
2023-04-14T17:58:41.679Z,1.60
2023-04-14T18:01:13.184Z,1.60
2023-04-14T18:03:42.464Z,1.27
2023-04-14T18:06:11.451Z,1.63
2023-04-14T18:08:44.159Z,2.20
2023-04-14T18:11:13.664Z,1.97
2023-04-14T18:13:42.457Z,2.17
2023-04-14T18:16:10.960Z,1.77
2023-04-14T18:18:47.289Z,1.93
2023-04-14T18:21:18.750Z,1.73
2023-04-14T18:24:47.632Z,1.67
2023-04-14T18:26:40.047Z,1.80
2023-04-14T18:29:08.981Z,1.70
2023-04-14T18:31:37.699Z,1.80
2023-04-14T18:34:19.913Z,2.00
2023-04-14T18:36:48.594Z,2.37
2023-04-14T18:39:16.955Z,1.63
2023-04-14T18:41:46.771Z,2.00
2023-04-14T18:44:17.385Z,1.87
2023-04-14T18:46:50.759Z,1.70
2023-04-14T18:49:20.337Z,1.50
2023-04-14T18:51:48.923Z,1.53
2023-04-14T18:54:20.449Z,1.40
2023-04-14T18:56:49.572Z,1.50
2023-04-14T18:59:23.342Z,1.50
2023-04-14T19:01:55.287Z,1.30
2023-04-14T19:04:26.347Z,1.30
2023-04-14T19:06:57.691Z,1.40
2023-04-14T19:09:27.870Z,1.40
2023-04-14T19:11:59.378Z,1.13
2023-04-14T19:14:28.010Z,1.30
2023-04-14T19:16:56.407Z,1.10
2023-04-14T19:19:26.742Z,1.17
2023-04-14T19:21:55.783Z,1.47
2023-04-14T19:24:24.185Z,1.30
2023-04-14T19:26:53.246Z,1.40
2023-04-14T19:29:23.079Z,1.40
2023-04-14T19:31:53.406Z,1.40
2023-04-14T19:34:22.324Z,1.40
2023-04-14T19:36:50.884Z,1.40
2023-04-14T19:39:22.842Z,1.53
2023-04-14T19:41:53.253Z,1.70
2023-04-14T19:44:24.957Z,1.77
2023-04-14T19:46:53.439Z,1.80
2023-04-14T19:49:23.638Z,1.47
2023-04-14T19:51:53.322Z,1.50
2023-04-14T19:54:22.028Z,0.87
2023-04-14T19:56:50.862Z,1.00
2023-04-14T19:59:19.429Z,1.23
2023-04-14T20:01:51.846Z,0.90
2023-04-14T20:04:23.402Z,1.10
2023-04-14T20:06:51.985Z,0.77
2023-04-14T20:09:21.116Z,0.60
2023-04-14T20:11:49.135Z,0.70
2023-04-14T20:14:20.697Z,0.60
2023-04-14T20:16:53.902Z,0.73
2023-04-14T20:19:24.850Z,0.77
2023-04-14T20:21:53.647Z,0.80
2023-04-14T20:24:23.498Z,0.80
2023-04-14T20:26:54.496Z,0.97
2023-04-14T20:29:25.291Z,1.47
2023-04-14T20:31:53.904Z,1.03
2023-04-14T20:34:24.134Z,1.00
2023-04-14T20:36:55.326Z,1.10
2023-04-14T20:39:23.599Z,1.17
2023-04-14T20:41:55.536Z,1.40
2023-04-14T20:44:29.244Z,1.30
2023-04-14T20:47:01.381Z,1.40
2023-04-14T20:52:19.920Z,1.20
2023-04-14T20:54:47.822Z,1.40
2023-04-14T20:57:18.297Z,1.40
2023-04-14T20:59:46.435Z,1.40
2023-04-14T21:02:14.807Z,1.43
2023-04-14T21:04:43.897Z,1.73
2023-04-14T21:07:13.036Z,1.20
2023-04-14T21:09:45.019Z,1.50
2023-04-14T21:12:19.406Z,1.50
2023-04-14T21:15:29.674Z,1.70
2023-04-14T21:17:40.583Z,1.70
2023-04-14T21:20:12.515Z,1.60
2023-04-14T21:22:42.902Z,1.40
2023-04-14T21:25:11.125Z,1.40
2023-04-14T21:27:39.359Z,1.50
2023-04-14T21:30:09.630Z,1.90
2023-04-14T21:32:41.486Z,1.70
2023-04-14T21:35:10.058Z,1.90
2023-04-14T21:37:40.488Z,1.70
2023-04-14T21:40:10.387Z,2.20
2023-04-14T21:42:39.538Z,1.60
2023-04-14T21:45:11.110Z,1.60
2023-04-14T21:47:39.305Z,1.90
2023-04-14T21:50:08.456Z,1.80
2023-04-14T21:52:36.979Z,1.83
2023-04-14T21:55:06.122Z,2.07
2023-04-14T21:57:42.835Z,1.93
2023-04-14T22:00:20.666Z,2.00
2023-04-14T22:02:52.873Z,2.37
2023-04-14T22:05:24.229Z,2.13
2023-04-14T22:07:57.162Z,2.27
2023-04-14T22:10:34.336Z,2.57
2023-04-14T22:13:03.430Z,2.67
2023-04-14T22:15:32.076Z,2.50
2023-04-14T22:18:05.384Z,2.40
2023-04-14T22:20:35.546Z,2.70
2023-04-14T22:23:05.364Z,2.20
2023-04-14T22:25:35.878Z,2.60
2023-04-14T22:28:06.285Z,2.30
2023-04-14T22:30:34.872Z,2.30
2023-04-14T22:33:04.429Z,2.37
2023-04-14T22:35:33.217Z,2.37
2023-04-14T22:38:03.785Z,2.30
2023-04-14T22:40:33.278Z,2.50
2023-04-14T22:43:04.352Z,2.47
2023-04-14T22:45:32.577Z,2.30
2023-04-14T22:48:02.751Z,2.60
2023-04-14T22:50:31.668Z,2.40
2023-04-14T22:53:00.677Z,2.57
2023-04-14T22:55:29.841Z,2.40
2023-04-14T22:57:58.226Z,2.33
2023-04-14T23:00:27.130Z,2.73
2023-04-14T23:02:56.353Z,2.70
2023-04-14T23:05:24.703Z,2.40
2023-04-14T23:07:57.507Z,2.90
2023-04-14T23:10:29.163Z,2.40
2023-04-14T23:12:59.587Z,2.80
2023-04-14T23:15:29.720Z,2.70
2023-04-14T23:18:06.156Z,2.20
2023-04-14T23:20:36.734Z,2.50
2023-04-14T23:23:06.286Z,2.73
2023-04-14T23:25:36.963Z,2.70
2023-04-14T23:28:10.395Z,2.63
2023-04-14T23:30:38.872Z,2.60
2023-04-14T23:33:07.826Z,2.53
2023-04-14T23:35:39.389Z,2.17
2023-04-14T23:38:07.842Z,2.50
2023-04-14T23:40:38.425Z,2.33
2023-04-14T23:43:09.359Z,2.43
2023-04-14T23:45:38.552Z,2.30
2023-04-14T23:48:07.480Z,2.47
2023-04-14T23:51:01.488Z,2.10
2023-04-14T23:53:30.131Z,2.40
2023-04-14T23:56:00.695Z,2.40
2023-04-14T23:58:32.797Z,2.40
